Time;durP1;ratioP1;P1;durP2;ratioP2;P2;SDS_P1;SDS_P2;PMS_P1;PMS_P2;Temp;Humidity;BMP_temperature;BMP_pressure;BME280_temperature;BME280_humidity;BME280_pressure;Samples;Min_cycle;Max_cycle;Signal;HPM_P1;HPM_P2
2023/12/14 00:01:14;;;;;;;;;;;;;;;8.51;90.00;101148.81;7296649;19;21312;-66
2023/12/14 00:03:41;;;;;;;;;;;;;;;8.46;90.72;101140.53;7297492;19;22325;-68
2023/12/14 00:06:09;;;;;;;;;;;;;;;8.45;90.85;101156.38;7283373;19;20018;-67
2023/12/14 00:08:36;;;;;;;;;;;;;;;8.46;91.27;101158.03;7299979;19;19938;-68
2023/12/14 00:11:05;;;;;;;;;;;;;;;8.50;91.37;101175.16;7291117;19;20437;-68
2023/12/14 00:13:32;;;;;;;;;;;;;;;8.48;91.72;101166.63;7298006;19;20863;-68
2023/12/14 00:16:03;;;;;;;;;;;;;;;8.56;94.34;101179.91;7295624;19;19938;-71
2023/12/14 00:19:05;;;;;;;;;;;;;;;8.56;92.30;101185.97;7282615;19;19963;-69
2023/12/14 00:21:41;;;;;;;;;;;;;;;8.53;91.88;101182.78;7294168;19;20377;-71
2023/12/14 00:24:24;;;;;;;;;;;;;;;8.55;91.83;101180.84;7282192;19;21167;-69
2023/12/14 00:26:51;;;;;;;;;;;;;;;8.56;91.74;101180.72;7297289;19;19955;-68
2023/12/14 00:29:18;;;;;;;;;;;;;;;8.56;90.87;101193.00;7292644;19;21820;-68
2023/12/14 00:31:45;;;;;;;;;;;;;;;8.57;90.67;101197.31;7284247;19;19945;-69
2023/12/14 00:34:12;;;;;;;;;;;;;;;8.54;91.06;101202.78;7291442;19;19941;-70
2023/12/14 00:36:40;;;;;;;;;;;;;;;8.57;91.28;101205.16;7291737;19;20545;-69
2023/12/14 00:39:07;;;;;;;;;;;;;;;8.56;90.75;101214.81;7287818;19;21934;-67
2023/12/14 00:41:34;;;;;;;;;;;;;;;8.56;90.99;101217.44;7312493;19;20527;-67
2023/12/14 00:44:01;;;;;;;;;;;;;;;8.54;90.64;101226.38;7311718;19;19923;-68
2023/12/14 00:46:28;;;;;;;;;;;;;;;8.52;90.80;101223.09;7294932;19;19919;-67
2023/12/14 00:48:55;;;;;;;;;;;;;;;8.56;91.31;101224.47;7309396;19;21833;-68
2023/12/14 00:51:22;;;;;;;;;;;;;;;8.57;91.84;101224.34;7289779;19;19922;-68
2023/12/14 00:53:49;;;;;;;;;;;;;;;8.59;91.54;101226.81;7280024;19;19915;-69
2023/12/14 00:56:16;;;;;;;;;;;;;;;8.61;91.63;101226.72;7281940;19;21001;-67
2023/12/14 00:58:48;;;;;;;;;;;;;;;8.58;90.79;101236.47;7311221;19;19922;-70
2023/12/14 01:01:43;;;;;;;;;;;;;;;8.59;90.26;101234.69;7304976;19;19919;-73
2023/12/14 01:04:33;;;;;;;;;;;;;;;8.61;89.61;101239.81;7287316;19;20019;-67
2023/12/14 01:07:00;;;;;;;;;;;;;;;8.56;89.45;101243.66;7294614;19;19937;-68
2023/12/14 01:09:27;;;;;;;;;;;;;;;8.56;89.82;101242.84;7278128;19;20284;-68
2023/12/14 01:12:02;;;;;;;;;;;;;;;8.47;89.32;101247.06;7299802;19;19974;-71
2023/12/14 01:14:50;;;;;;;;;;;;;;;8.47;89.59;101249.69;7298678;19;20288;-74
2023/12/14 01:17:18;;;;;;;;;;;;;;;8.44;89.66;101259.59;7302370;19;20189;-69
2023/12/14 01:20:06;;;;;;;;;;;;;;;8.45;90.51;101259.47;7302699;19;19923;-69
2023/12/14 01:22:33;;;;;;;;;;;;;;;8.47;90.61;101273.28;7302130;19;19922;-68
2023/12/14 01:25:01;;;;;;;;;;;;;;;8.50;89.78;101278.28;7286221;19;19952;-70
2023/12/14 01:27:28;;;;;;;;;;;;;;;8.49;89.82;101267.91;7281725;19;19961;-69
2023/12/14 01:29:55;;;;;;;;;;;;;;;8.43;89.92;101266.63;7304755;19;19925;-70
2023/12/14 01:32:31;;;;;;;;;;;;;;;8.43;89.07;101271.88;7290914;19;19942;-70
2023/12/14 01:35:10;;;;;;;;;;;;;;;8.43;89.12;101265.81;7293642;19;19923;-69
2023/12/14 01:37:40;;;;;;;;;;;;;;;8.39;89.25;101269.63;7307365;19;20366;-69
2023/12/14 01:40:08;;;;;;;;;;;;;;;8.38;89.16;101276.66;7305624;19;19927;-68
2023/12/14 01:42:35;;;;;;;;;;;;;;;8.37;89.51;101277.63;7301053;19;20714;-70
2023/12/14 01:45:03;;;;;;;;;;;;;;;8.38;89.86;101276.66;7292143;19;19926;-69
2023/12/14 01:47:32;;;;;;;;;;;;;;;8.36;89.79;101273.34;7299915;19;19921;-72
2023/12/14 01:50:30;;;;;;;;;;;;;;;8.36;89.76;101278.59;7287786;19;19922;-68
2023/12/14 01:52:57;;;;;;;;;;;;;;;8.36;89.81;101269.91;7308833;19;20224;-69
2023/12/14 01:55:25;;;;;;;;;;;;;;;8.39;89.99;101273.09;7293272;19;19923;-68
2023/12/14 01:57:52;;;;;;;;;;;;;;;8.41;89.39;101270.34;7298758;19;19911;-67
2023/12/14 02:00:29;;;;;;;;;;;;;;;8.41;88.79;101272.97;7284436;19;19923;-68
2023/12/14 02:02:55;;;;;;;;;;;;;;;8.39;89.32;101275.72;7309963;19;19938;-68
2023/12/14 02:05:22;;;;;;;;;;;;;;;8.39;89.09;101285.34;7301321;19;20434;-67
2023/12/14 02:07:49;;;;;;;;;;;;;;;8.38;89.86;101288.97;7320483;19;19958;-67
2023/12/14 02:10:16;;;;;;;;;;;;;;;8.36;90.26;101307.44;7306277;19;19923;-68
2023/12/14 02:12:43;;;;;;;;;;;;;;;8.35;89.78;101313.63;7297529;19;20799;-68
2023/12/14 02:15:10;;;;;;;;;;;;;;;8.37;89.45;101316.97;7301673;19;19919;-68
2023/12/14 02:17:37;;;;;;;;;;;;;;;8.34;89.18;101311.13;7297663;19;20291;-68
2023/12/14 02:20:05;;;;;;;;;;;;;;;8.33;88.90;101318.16;7294373;19;20050;-67
2023/12/14 02:22:42;;;;;;;;;;;;;;;8.30;88.71;101320.22;7301027;19;19931;-67
2023/12/14 02:25:09;;;;;;;;;;;;;;;8.32;89.43;101328.78;7282769;19;19990;-68
2023/12/14 02:27:35;;;;;;;;;;;;;;;8.32;89.62;101323.53;7293505;19;19923;-68
2023/12/14 02:30:02;;;;;;;;;;;;;;;8.33;89.50;101330.47;7301819;19;19931;-68
2023/12/14 02:32:30;;;;;;;;;;;;;;;8.31;89.37;101332.34;7295347;19;19923;-68
2023/12/14 02:34:57;;;;;;;;;;;;;;;8.33;89.58;101338.31;7296649;19;19934;-68
2023/12/14 02:37:24;;;;;;;;;;;;;;;8.31;89.21;101355.94;7297424;19;20419;-68
2023/12/14 02:39:51;;;;;;;;;;;;;;;8.32;89.59;101345.34;7298502;19;19956;-68
2023/12/14 02:42:18;;;;;;;;;;;;;;;8.27;89.55;101349.28;7297343;19;20326;-69
2023/12/14 02:44:44;;;;;;;;;;;;;;;8.27;89.61;101350.09;7288743;19;20390;-68
2023/12/14 02:47:11;;;;;;;;;;;;;;;8.27;89.31;101367.63;7287742;19;20017;-69
2023/12/14 02:49:38;;;;;;;;;;;;;;;8.18;88.95;101372.63;7281503;19;19931;-68
2023/12/14 02:52:05;;;;;;;;;;;;;;;8.22;89.23;101372.41;7289420;19;20006;-69
2023/12/14 02:54:32;;;;;;;;;;;;;;;8.18;89.13;101385.75;7286198;19;19919;-69
2023/12/14 02:56:59;;;;;;;;;;;;;;;8.12;89.65;101388.03;7280799;19;19923;-69
2023/12/14 02:59:26;;;;;;;;;;;;;;;8.13;89.99;101389.69;7282499;19;19919;-67
2023/12/14 03:01:53;;;;;;;;;;;;;;;8.08;89.22;101387.44;7280973;19;19922;-68
2023/12/14 03:04:20;;;;;;;;;;;;;;;8.04;89.30;101380.78;7298736;19;21110;-68
2023/12/14 03:06:47;;;;;;;;;;;;;;;8.03;89.10;101388.75;7287091;19;19942;-68
2023/12/14 03:09:14;;;;;;;;;;;;;;;7.98;88.84;101381.25;7299810;19;19923;-69
2023/12/14 03:11:41;;;;;;;;;;;;;;;7.94;88.13;101373.78;7306895;19;21108;-70
2023/12/14 03:14:08;;;;;;;;;;;;;;;7.87;88.71;101368.22;7300111;19;19918;-69
2023/12/14 03:16:35;;;;;;;;;;;;;;;7.80;88.55;101364.41;7308096;19;19915;-69
2023/12/14 03:19:03;;;;;;;;;;;;;;;7.78;89.29;101357.59;7308798;19;22041;-69
2023/12/14 03:21:30;;;;;;;;;;;;;;;7.72;89.33;101351.06;7306050;19;20598;-68
2023/12/14 03:23:57;;;;;;;;;;;;;;;7.68;90.00;101347.03;7307214;19;19931;-67
2023/12/14 03:26:24;;;;;;;;;;;;;;;7.65;90.05;101342.03;7277377;19;19933;-68
2023/12/14 03:28:51;;;;;;;;;;;;;;;7.63;90.18;101343.94;7278759;19;19929;-68
2023/12/14 03:31:18;;;;;;;;;;;;;;;7.59;90.56;101356.44;7296064;19;20490;-68
2023/12/14 03:33:45;;;;;;;;;;;;;;;7.52;89.75;101350.00;7291623;19;19978;-67
2023/12/14 03:36:12;;;;;;;;;;;;;;;7.50;90.05;101369.44;7288261;19;20174;-68
2023/12/14 03:38:39;;;;;;;;;;;;;;;7.51;90.31;101358.00;7281906;19;19919;-68
2023/12/14 03:41:06;;;;;;;;;;;;;;;7.49;90.67;101360.75;7295601;19;19914;-68
2023/12/14 03:43:33;;;;;;;;;;;;;;;7.49;90.84;101359.91;7299221;19;20196;-69
2023/12/14 03:46:01;;;;;;;;;;;;;;;7.44;90.59;101360.25;7285534;19;19915;-69
2023/12/14 03:48:28;;;;;;;;;;;;;;;7.38;90.20;101352.88;7286618;19;21101;-69
2023/12/14 03:50:55;;;;;;;;;;;;;;;7.36;90.84;101367.06;7300774;19;19978;-68
2023/12/14 03:53:22;;;;;;;;;;;;;;;7.32;91.16;101372.50;7285950;19;19923;-68
2023/12/14 03:55:49;;;;;;;;;;;;;;;7.24;90.93;101367.03;7293631;19;20041;-68
2023/12/14 03:58:16;;;;;;;;;;;;;;;7.24;91.35;101379.28;7284326;19;20478;-68
2023/12/14 04:00:43;;;;;;;;;;;;;;;7.22;91.54;101373.31;7291601;19;20269;-68
2023/12/14 04:03:10;;;;;;;;;;;;;;;7.21;90.88;101379.53;7304011;19;19923;-68
2023/12/14 04:05:38;;;;;;;;;;;;;;;7.19;91.04;101373.56;7295228;19;20509;-68
2023/12/14 04:08:05;;;;;;;;;;;;;;;7.18;90.97;101377.97;7295991;19;19918;-68
2023/12/14 04:10:32;;;;;;;;;;;;;;;7.12;90.61;101386.28;7287762;19;19914;-68
2023/12/14 04:12:59;;;;;;;;;;;;;;;7.11;91.33;101389.03;7296154;19;19966;-68
2023/12/14 04:15:26;;;;;;;;;;;;;;;7.08;91.73;101390.09;7294700;19;19922;-67
2023/12/14 04:17:53;;;;;;;;;;;;;;;7.01;91.15;101396.72;7288321;19;20698;-68
2023/12/14 04:20:20;;;;;;;;;;;;;;;7.01;91.33;101406.38;7286505;19;19921;-68
2023/12/14 04:22:48;;;;;;;;;;;;;;;6.96;91.53;101406.69;7303522;19;19914;-68
2023/12/14 04:25:15;;;;;;;;;;;;;;;6.90;91.41;101401.97;7285808;19;19921;-68
2023/12/14 04:27:42;;;;;;;;;;;;;;;6.88;91.74;101409.06;7302573;19;20029;-68
2023/12/14 04:30:10;;;;;;;;;;;;;;;6.88;92.37;101411.69;7292576;19;20543;-68
2023/12/14 04:32:38;;;;;;;;;;;;;;;6.90;91.79;101419.44;7287078;19;19967;-68
2023/12/14 04:35:05;;;;;;;;;;;;;;;6.87;91.83;101423.09;7285609;19;19922;-68
2023/12/14 04:37:32;;;;;;;;;;;;;;;6.82;91.60;101427.81;7290151;19;19914;-67
2023/12/14 04:39:59;;;;;;;;;;;;;;;6.85;91.90;101425.00;7285224;19;20621;-68
2023/12/14 04:42:26;;;;;;;;;;;;;;;6.90;91.44;101419.44;7285129;19;19919;-67
2023/12/14 04:44:53;;;;;;;;;;;;;;;6.91;91.13;101427.13;7298583;19;19914;-69
2023/12/14 04:47:20;;;;;;;;;;;;;;;6.92;90.51;101428.81;7295995;19;20487;-67
2023/12/14 04:49:47;;;;;;;;;;;;;;;6.89;90.45;101431.66;7297895;19;19923;-68
2023/12/14 04:52:14;;;;;;;;;;;;;;;6.90;90.30;101432.50;7290844;19;19919;-69
2023/12/14 04:54:42;;;;;;;;;;;;;;;6.91;90.25;101436.78;7308086;19;20441;-67
2023/12/14 04:57:09;;;;;;;;;;;;;;;6.88;90.36;101437.84;7297919;19;19963;-68
2023/12/14 04:59:35;;;;;;;;;;;;;;;6.90;90.12;101435.13;7290749;19;20434;-68
2023/12/14 05:02:03;;;;;;;;;;;;;;;6.85;89.36;101433.69;7286791;19;19918;-68
2023/12/14 05:04:30;;;;;;;;;;;;;;;6.85;90.47;101438.91;7291084;19;19926;-68
2023/12/14 05:06:57;;;;;;;;;;;;;;;6.85;89.87;101436.31;7293231;19;19990;-70
2023/12/14 05:09:24;;;;;;;;;;;;;;;6.87;89.96;101446.63;7296383;19;20512;-68
2023/12/14 05:11:51;;;;;;;;;;;;;;;6.93;90.32;101455.81;7282358;19;19915;-69
2023/12/14 05:14:18;;;;;;;;;;;;;;;6.96;90.05;101461.63;7293049;19;20536;-68
2023/12/14 05:16:45;;;;;;;;;;;;;;;6.97;89.85;101460.69;7283747;19;19929;-68
2023/12/14 05:19:13;;;;;;;;;;;;;;;6.99;89.19;101466.66;7292788;19;20356;-69
2023/12/14 05:21:40;;;;;;;;;;;;;;;7.01;89.27;101463.94;7311786;19;19921;-69
2023/12/14 05:24:07;;;;;;;;;;;;;;;7.00;89.19;101470.09;7299680;19;19997;-68
2023/12/14 05:26:34;;;;;;;;;;;;;;;6.98;88.91;101469.38;7280493;19;20002;-68
2023/12/14 05:29:01;;;;;;;;;;;;;;;6.96;89.60;101479.94;7289383;19;19986;-68
2023/12/14 05:31:28;;;;;;;;;;;;;;;6.97;89.42;101484.22;7292317;19;19922;-68
2023/12/14 05:33:54;;;;;;;;;;;;;;;7.00;89.29;101483.19;7301095;19;20671;-68
2023/12/14 05:36:21;;;;;;;;;;;;;;;7.01;89.57;101483.06;7281963;19;19919;-68
2023/12/14 05:38:48;;;;;;;;;;;;;;;7.03;89.48;101483.78;7294664;19;20319;-70
2023/12/14 05:41:16;;;;;;;;;;;;;;;7.06;89.92;101486.16;7305238;19;19922;-68
2023/12/14 05:43:43;;;;;;;;;;;;;;;7.04;90.11;101482.84;7295777;19;20281;-69
2023/12/14 05:46:20;;;;;;;;;;;;;;;7.10;90.19;101486.78;7293928;19;19945;-70
2023/12/14 05:48:48;;;;;;;;;;;;;;;7.11;89.64;101483.22;7305138;19;19918;-68
2023/12/14 05:51:25;;;;;;;;;;;;;;;7.14;89.63;101485.59;7310993;19;20427;-68
2023/12/14 05:53:52;;;;;;;;;;;;;;;7.16;89.88;101484.53;7302319;19;19982;-69
2023/12/14 05:56:19;;;;;;;;;;;;;;;7.17;89.60;101480.13;7294040;19;19930;-70
2023/12/14 05:58:46;;;;;;;;;;;;;;;7.18;88.80;101482.66;7290822;19;19918;-71
2023/12/14 06:01:13;;;;;;;;;;;;;;;7.18;88.97;101493.09;7298327;19;19934;-68
2023/12/14 06:03:40;;;;;;;;;;;;;;;7.13;88.81;101500.47;7292610;19;20384;-69
2023/12/14 06:06:07;;;;;;;;;;;;;;;7.12;89.00;101488.31;7287187;19;19951;-69
2023/12/14 06:08:34;;;;;;;;;;;;;;;7.18;89.98;101493.09;7299281;19;19919;-69
2023/12/14 06:11:01;;;;;;;;;;;;;;;7.21;90.38;101495.47;7286770;19;21156;-68
2023/12/14 06:13:28;;;;;;;;;;;;;;;7.18;88.87;101502.75;7297996;19;20602;-68
2023/12/14 06:15:55;;;;;;;;;;;;;;;7.16;88.18;101515.13;7293170;19;20246;-69
2023/12/14 06:18:21;;;;;;;;;;;;;;;7.16;88.47;101521.16;7297596;19;19987;-70
2023/12/14 06:20:48;;;;;;;;;;;;;;;7.18;88.87;101532.38;7292922;19;19961;-69
2023/12/14 06:23:16;;;;;;;;;;;;;;;7.19;89.05;101535.81;7298886;19;19922;-69
2023/12/14 06:25:43;;;;;;;;;;;;;;;7.18;88.88;101529.75;7304160;19;20355;-67
2023/12/14 06:28:10;;;;;;;;;;;;;;;7.17;88.62;101538.53;7304887;19;20944;-68
2023/12/14 06:30:37;;;;;;;;;;;;;;;7.16;88.33;101538.66;7294137;19;19931;-68
2023/12/14 06:33:04;;;;;;;;;;;;;;;7.21;88.91;101536.53;7286087;19;20218;-69
2023/12/14 06:35:31;;;;;;;;;;;;;;;7.22;88.74;101543.44;7299239;19;20014;-67
2023/12/14 06:37:58;;;;;;;;;;;;;;;7.24;88.94;101545.00;7283347;19;19926;-69
2023/12/14 06:40:25;;;;;;;;;;;;;;;7.31;89.16;101548.00;7294073;19;20875;-68
2023/12/14 06:42:52;;;;;;;;;;;;;;;7.34;89.47;101544.31;7292863;19;20261;-68
2023/12/14 06:45:19;;;;;;;;;;;;;;;7.39;90.60;101545.63;7287059;19;19933;-68
2023/12/14 06:47:47;;;;;;;;;;;;;;;7.39;89.83;101553.50;7280865;19;19934;-69
2023/12/14 06:50:14;;;;;;;;;;;;;;;7.40;89.19;101554.31;7291744;19;19927;-69
2023/12/14 06:52:41;;;;;;;;;;;;;;;7.40;88.32;101563.03;7299779;19;20891;-69
2023/12/14 06:55:09;;;;;;;;;;;;;;;7.37;88.46;101557.16;7289401;19;19930;-68
2023/12/14 06:57:36;;;;;;;;;;;;;;;7.32;86.91;101568.81;7303957;19;19929;-68
2023/12/14 07:00:03;;;;;;;;;;;;;;;7.27;87.03;101570.09;7284714;19;20484;-69
2023/12/14 07:02:32;;;;;;;;;;;;;;;7.24;87.21;101572.94;7292206;19;21081;-69
2023/12/14 07:05:00;;;;;;;;;;;;;;;7.19;87.37;101572.44;7291195;19;20017;-69
2023/12/14 07:07:27;;;;;;;;;;;;;;;7.15;87.21;101577.09;7298591;19;20013;-69
2023/12/14 07:09:54;;;;;;;;;;;;;;;7.12;87.48;101563.38;7285446;19;20584;-68
2023/12/14 07:12:21;;;;;;;;;;;;;;;7.17;88.31;101571.72;7288954;19;20359;-68
2023/12/14 07:14:48;;;;;;;;;;;;;;;7.20;88.20;101568.91;7298788;19;19915;-68
2023/12/14 07:17:15;;;;;;;;;;;;;;;7.25;88.18;101574.63;7309574;19;19929;-69
2023/12/14 07:19:42;;;;;;;;;;;;;;;7.28;88.42;101579.63;7316264;19;19923;-69
2023/12/14 07:22:09;;;;;;;;;;;;;;;7.30;88.05;101581.19;7313745;19;20318;-69
2023/12/14 07:24:36;;;;;;;;;;;;;;;7.31;88.08;101589.88;7293565;19;19923;-68
2023/12/14 07:27:17;;;;;;;;;;;;;;;7.29;88.45;101584.75;7275677;19;19990;-69
2023/12/14 07:29:44;;;;;;;;;;;;;;;7.37;89.15;101592.03;7278051;19;19922;-69
2023/12/14 07:32:12;;;;;;;;;;;;;;;7.40;88.71;101596.22;7288020;19;20025;-69
2023/12/14 07:34:39;;;;;;;;;;;;;;;7.39;87.49;101602.38;7282686;19;19926;-68
2023/12/14 07:37:06;;;;;;;;;;;;;;;7.39;87.46;101608.47;7297736;19;19914;-70
2023/12/14 07:39:34;;;;;;;;;;;;;;;7.39;88.41;101612.84;7280573;19;19923;-69
2023/12/14 07:42:01;;;;;;;;;;;;;;;7.43;88.60;101611.69;7308636;19;19943;-69
2023/12/14 07:44:29;;;;;;;;;;;;;;;7.47;89.04;101610.50;7284619;19;20029;-70
2023/12/14 07:46:58;;;;;;;;;;;;;;;7.45;87.53;101620.28;7301355;19;19911;-68
2023/12/14 07:49:25;;;;;;;;;;;;;;;7.38;86.41;101627.72;7288580;19;20509;-69
2023/12/14 07:51:53;;;;;;;;;;;;;;;7.46;87.36;101622.78;7313153;19;19925;-69
2023/12/14 07:54:20;;;;;;;;;;;;;;;7.53;88.93;101626.59;7309797;19;19927;-70
2023/12/14 07:56:48;;;;;;;;;;;;;;;7.57;88.36;101637.66;7306598;19;19919;-69
2023/12/14 07:59:15;;;;;;;;;;;;;;;7.55;88.24;101632.56;7306095;19;19970;-69
2023/12/14 08:01:42;;;;;;;;;;;;;;;7.58;88.46;101623.63;7296753;19;19921;-69
2023/12/14 08:04:11;;;;;;;;;;;;;;;7.50;88.54;101629.47;7288066;19;19930;-70
2023/12/14 08:06:39;;;;;;;;;;;;;;;7.52;88.93;101624.09;7298514;19;19926;-69
2023/12/14 08:09:07;;;;;;;;;;;;;;;7.57;89.55;101624.56;7276448;19;19927;-70
2023/12/14 08:11:34;;;;;;;;;;;;;;;7.61;91.43;101632.13;7284286;19;20675;-69
2023/12/14 08:14:02;;;;;;;;;;;;;;;7.66;92.54;101624.75;7281850;19;19961;-69
2023/12/14 08:16:31;;;;;;;;;;;;;;;7.65;92.69;101625.69;7287068;19;20244;-68
2023/12/14 08:18:58;;;;;;;;;;;;;;;7.62;92.04;101630.31;7275367;19;19929;-69
2023/12/14 08:21:26;;;;;;;;;;;;;;;7.63;92.80;101622.34;7281787;19;21152;-69
2023/12/14 08:23:53;;;;;;;;;;;;;;;7.51;92.92;101625.06;7286146;19;20452;-70
2023/12/14 08:26:20;;;;;;;;;;;;;;;7.53;93.33;101613.50;7289409;19;19974;-69
2023/12/14 08:28:48;;;;;;;;;;;;;;;7.54;93.97;101611.72;7301346;19;20928;-70
2023/12/14 08:31:16;;;;;;;;;;;;;;;7.53;93.37;101612.66;7303112;19;20256;-70
2023/12/14 08:34:03;;;;;;;;;;;;;;;7.45;92.04;101626.34;7291489;19;19929;-70
2023/12/14 08:36:35;;;;;;;;;;;;;;;7.34;92.48;101634.13;7303774;19;19959;-69
2023/12/14 08:39:06;;;;;;;;;;;;;;;7.30;92.99;101643.16;7294134;19;19930;-69
2023/12/14 08:41:37;;;;;;;;;;;;;;;7.28;93.71;101645.88;7293989;19;19926;-70
2023/12/14 08:44:20;;;;;;;;;;;;;;;7.34;95.45;101649.00;7293499;19;19938;-70
2023/12/14 08:46:48;;;;;;;;;;;;;;;7.34;95.80;101651.63;7285771;19;19911;-69
2023/12/14 08:52:18;;;;;;;;;;;;;;;7.39;96.45;101644.28;7295758;19;19989;-70
2023/12/14 08:54:54;;;;;;;;;;;;;;;7.54;96.62;101648.38;7290471;19;20193;-69
2023/12/14 08:57:30;;;;;;;;;;;;;;;7.63;96.01;101648.53;7297950;19;19923;-69
2023/12/14 09:00:04;;;;;;;;;;;;;;;7.65;94.78;101651.88;7291335;19;19928;-69
2023/12/14 09:02:32;;;;;;;;;;;;;;;7.66;94.94;101658.81;7276475;19;19919;-69
2023/12/14 09:05:20;;;;;;;;;;;;;;;7.65;93.91;101659.75;7288318;19;19919;-70
2023/12/14 09:07:54;;;;;;;;;;;;;;;7.65;95.36;101653.66;7290024;19;21402;-69
2023/12/14 09:10:22;;;;;;;;;;;;;;;7.65;96.01;101659.75;7297295;19;19934;-69
2023/12/14 09:12:50;;;;;;;;;;;;;;;7.65;95.38;101651.88;7303962;19;19918;-69
2023/12/14 09:15:18;;;;;;;;;;;;;;;7.63;95.70;101651.16;7301454;19;19933;-69
2023/12/14 09:17:48;;;;;;;;;;;;;;;7.66;94.82;101648.31;7285753;19;20281;-70
2023/12/14 09:20:19;;;;;;;;;;;;;;;7.64;94.27;101652.00;7312204;19;19941;-69
2023/12/14 09:22:47;;;;;;;;;;;;;;;7.64;94.23;101660.69;7301776;19;19938;-69
2023/12/14 09:25:28;;;;;;;;;;;;;;;7.58;94.10;101661.13;7290470;19;20395;-70
2023/12/14 09:27:56;;;;;;;;;;;;;;;7.64;94.93;101660.69;7304051;19;22374;-69
2023/12/14 09:30:26;;;;;;;;;;;;;;;8.31;100.00;101667.91;7274934;19;19956;-69
2023/12/14 09:32:57;;;;;;;;;;;;;;;8.27;100.00;101671.69;7283779;19;20463;-70
2023/12/14 09:35:25;;;;;;;;;;;;;;;8.18;100.00;101675.84;7285501;19;19929;-72
2023/12/14 09:37:53;;;;;;;;;;;;;;;8.18;98.26;101669.78;7298196;19;19923;-70
2023/12/14 09:40:22;;;;;;;;;;;;;;;8.19;96.95;101677.50;7293719;19;19998;-70
2023/12/14 09:42:55;;;;;;;;;;;;;;;8.21;94.76;101678.25;7288431;19;19954;-69
2023/12/14 09:45:24;;;;;;;;;;;;;;;8.24;94.69;101677.16;7292945;19;19963;-70
2023/12/14 09:47:52;;;;;;;;;;;;;;;8.27;94.58;101685.66;7301383;19;19933;-70
2023/12/14 09:50:20;;;;;;;;;;;;;;;8.30;93.11;101679.34;7288190;19;19922;-71
2023/12/14 09:52:49;;;;;;;;;;;;;;;8.32;92.95;101680.91;7300824;19;20058;-69
2023/12/14 09:55:17;;;;;;;;;;;;;;;8.32;93.15;101680.09;7298655;19;20285;-70
2023/12/14 09:57:44;;;;;;;;;;;;;;;8.42;94.70;101687.13;7292402;19;20387;-70
2023/12/14 10:00:13;;;;;;;;;;;;;;;8.48;95.42;101683.22;7307742;19;19929;-69
2023/12/14 10:02:41;;;;;;;;;;;;;;;8.55;96.09;101687.84;7303449;19;20453;-69
2023/12/14 10:05:10;;;;;;;;;;;;;;;8.51;94.32;101688.19;7294466;19;20314;-69
2023/12/14 10:07:44;;;;;;;;;;;;;;;8.45;92.18;101686.88;7287595;19;19934;-69
2023/12/14 10:10:15;;;;;;;;;;;;;;;8.50;93.75;101690.00;7303810;19;19923;-69
2023/12/14 10:12:54;;;;;;;;;;;;;;;8.50;92.64;101689.16;7317687;19;19926;-69
2023/12/14 10:15:24;;;;;;;;;;;;;;;8.50;92.31;101690.00;7298409;19;19918;-70
2023/12/14 10:17:53;;;;;;;;;;;;;;;8.44;89.52;101682.59;7298489;19;19923;-69
2023/12/14 10:20:22;;;;;;;;;;;;;;;8.51;89.00;101698.69;7305460;19;19952;-70
2023/12/14 10:22:50;;;;;;;;;;;;;;;8.55;89.39;101695.72;7305007;19;20230;-71
2023/12/14 10:25:18;;;;;;;;;;;;;;;8.63;90.59;101697.75;7303998;19;20728;-68
2023/12/14 10:28:02;;;;;;;;;;;;;;;8.63;88.90;101692.50;7309059;19;19922;-70
2023/12/14 10:30:30;;;;;;;;;;;;;;;8.68;91.47;101693.00;7299553;19;20312;-69
2023/12/14 10:33:04;;;;;;;;;;;;;;;8.70;91.02;101693.69;7290669;19;19922;-69
2023/12/14 10:35:32;;;;;;;;;;;;;;;8.72;91.71;101693.56;7291637;19;19926;-69
2023/12/14 10:38:03;;;;;;;;;;;;;;;8.76;93.16;101695.84;7294274;19;19930;-69
2023/12/14 10:40:43;;;;;;;;;;;;;;;8.78;92.62;101707.06;7284592;19;19949;-70
2023/12/14 10:43:11;;;;;;;;;;;;;;;8.77;91.82;101705.38;7302482;19;19923;-69
2023/12/14 10:45:43;;;;;;;;;;;;;;;8.75;91.60;101701.19;7291102;19;19994;-70
2023/12/14 10:48:13;;;;;;;;;;;;;;;8.75;89.34;101704.66;7298000;19;20554;-70
2023/12/14 10:50:42;;;;;;;;;;;;;;;8.74;88.81;101702.16;7286601;19;19930;-68
2023/12/14 10:53:10;;;;;;;;;;;;;;;8.74;88.19;101704.78;7299489;19;21740;-70
2023/12/14 10:55:40;;;;;;;;;;;;;;;8.73;87.78;101711.00;7317468;19;19918;-69
2023/12/14 10:58:09;;;;;;;;;;;;;;;8.75;88.82;101709.06;7296794;19;20787;-69
2023/12/14 11:00:39;;;;;;;;;;;;;;;8.79;89.93;101713.13;7296094;19;19947;-69
2023/12/14 11:03:13;;;;;;;;;;;;;;;8.78;88.86;101700.97;7307206;19;20414;-68
2023/12/14 11:05:40;;;;;;;;;;;;;;;8.74;88.25;101708.22;7295921;19;20750;-68
2023/12/14 11:08:09;;;;;;;;;;;;;;;8.68;87.73;101713.97;7292698;19;20673;-68
2023/12/14 11:10:39;;;;;;;;;;;;;;;8.70;88.93;101712.06;7298566;19;19918;-69
2023/12/14 11:13:10;;;;;;;;;;;;;;;8.74;89.73;101705.59;7299173;19;20399;-70
2023/12/14 11:15:38;;;;;;;;;;;;;;;8.75;90.10;101704.66;7291186;19;19923;-69
2023/12/14 11:18:10;;;;;;;;;;;;;;;8.74;90.25;101702.16;7291797;19;19918;-70
2023/12/14 11:20:47;;;;;;;;;;;;;;;8.77;90.83;101696.69;7288334;19;21208;-70
2023/12/14 11:23:14;;;;;;;;;;;;;;;8.79;91.15;101689.50;7297674;19;19926;-69
2023/12/14 11:25:42;;;;;;;;;;;;;;;8.86;92.85;101686.28;7294049;19;20457;-68
2023/12/14 11:28:13;;;;;;;;;;;;;;;8.91;92.23;101691.19;7297591;19;19927;-69
2023/12/14 11:30:43;;;;;;;;;;;;;;;8.97;93.19;101688.91;7297750;19;19923;-69
2023/12/14 11:33:22;;;;;;;;;;;;;;;9.00;93.11;101693.06;7307704;19;20458;-69
2023/12/14 11:35:50;;;;;;;;;;;;;;;8.99;93.10;101688.78;7303300;19;19915;-70
2023/12/14 11:38:20;;;;;;;;;;;;;;;8.99;93.12;101681.72;7291184;19;20097;-70
2023/12/14 11:40:49;;;;;;;;;;;;;;;9.00;93.25;101678.16;7286292;19;21427;-70
2023/12/14 11:43:16;;;;;;;;;;;;;;;8.93;92.86;101678.78;7286260;19;20006;-69
2023/12/14 11:45:52;;;;;;;;;;;;;;;8.94;93.33;101678.63;7291928;19;19934;-69
2023/12/14 11:48:20;;;;;;;;;;;;;;;9.04;95.74;101683.19;7297009;19;20433;-68
2023/12/14 11:50:48;;;;;;;;;;;;;;;9.05;95.95;101683.03;7287168;19;20284;-69
2023/12/14 11:53:15;;;;;;;;;;;;;;;9.09;96.09;101674.00;7301748;19;20054;-69
2023/12/14 11:55:42;;;;;;;;;;;;;;;9.12;96.29;101676.38;7287450;19;19936;-69
2023/12/14 11:58:13;;;;;;;;;;;;;;;9.13;95.62;101677.19;7281038;19;20277;-70
2023/12/14 12:00:46;;;;;;;;;;;;;;;9.11;96.35;101681.72;7301755;19;20155;-69
2023/12/14 12:03:19;;;;;;;;;;;;;;;9.10;96.54;101672.19;7297478;19;19919;-69
2023/12/14 12:06:02;;;;;;;;;;;;;;;9.12;97.53;101672.91;7299159;19;19933;-69
2023/12/14 12:08:29;;;;;;;;;;;;;;;9.15;98.58;101677.88;7300889;19;20691;-69
2023/12/14 12:10:56;;;;;;;;;;;;;;;9.16;99.36;101671.69;7306434;19;19923;-69
2023/12/14 12:13:22;;;;;;;;;;;;;;;9.15;99.26;101668.22;7302081;19;21035;-69
2023/12/14 12:15:49;;;;;;;;;;;;;;;9.11;98.93;101666.81;7305001;19;19957;-69
2023/12/14 12:18:17;;;;;;;;;;;;;;;9.15;99.29;101668.22;7291162;19;19945;-70
2023/12/14 12:20:45;;;;;;;;;;;;;;;9.19;100.00;101667.06;7301977;19;19930;-69
2023/12/14 12:23:29;;;;;;;;;;;;;;;9.23;100.00;101662.38;7289108;19;20338;-70
2023/12/14 12:25:56;;;;;;;;;;;;;;;9.22;99.92;101653.66;7288904;19;19919;-68
2023/12/14 12:28:23;;;;;;;;;;;;;;;9.28;100.00;101665.47;7302885;19;19959;-69
2023/12/14 12:30:50;;;;;;;;;;;;;;;9.28;99.97;101662.84;7287714;19;20399;-69
2023/12/14 12:33:25;;;;;;;;;;;;;;;9.30;100.00;101667.00;7290397;19;20091;-69
2023/12/14 12:35:53;;;;;;;;;;;;;;;9.34;100.00;101663.19;7289629;19;21097;-69
2023/12/14 12:38:19;;;;;;;;;;;;;;;9.39;100.00;101657.56;7282610;19;19915;-71
2023/12/14 12:40:46;;;;;;;;;;;;;;;9.41;99.64;101650.38;7293888;19;20247;-70
2023/12/14 12:43:14;;;;;;;;;;;;;;;9.51;100.00;101658.34;7293954;19;19933;-69
2023/12/14 12:45:43;;;;;;;;;;;;;;;9.50;100.00;101656.69;7289383;19;20278;-69
2023/12/14 12:48:10;;;;;;;;;;;;;;;9.56;100.00;101659.63;7293940;19;20066;-69
2023/12/14 12:50:37;;;;;;;;;;;;;;;9.56;99.41;101657.00;7298339;19;20346;-70
2023/12/14 12:53:04;;;;;;;;;;;;;;;9.54;98.83;101661.56;7317675;19;19943;-69
2023/12/14 12:55:31;;;;;;;;;;;;;;;9.54;98.96;101656.31;7306645;19;19915;-70
2023/12/14 12:58:04;;;;;;;;;;;;;;;9.54;99.16;101655.47;7307833;19;19915;-69